Time;durP1;ratioP1;P1;durP2;ratioP2;P2;SDS_P1;SDS_P2;PMS_P1;PMS_P2;Temp;Humidity;BMP_temperature;BMP_pressure;BME280_temperature;BME280_humidity;BME280_pressure;Samples;Min_cycle;Max_cycle;Signal;HPM_P1;HPM_P2
2023/07/01 00:00:07;;;;;;;39.10;31.47;;;;;;;17.05;100.00;95906.31;4992186;28;102628;-57
2023/07/01 00:02:36;;;;;;;36.93;30.10;;;;;;;16.95;100.00;95906.53;4996170;28;102444;-58
2023/07/01 00:05:04;;;;;;;39.97;32.07;;;;;;;17.01;100.00;95907.22;5011910;28;101883;-58
2023/07/01 00:07:32;;;;;;;40.97;31.73;;;;;;;17.02;100.00;95900.75;5010669;28;105365;-58
2023/07/01 00:09:59;;;;;;;38.47;31.17;;;;;;;17.08;100.00;95899.53;5011126;28;101918;-57
2023/07/01 00:12:26;;;;;;;36.10;30.43;;;;;;;17.03;100.00;95903.13;5015181;28;101840;-58
2023/07/01 00:14:53;;;;;;;38.33;31.13;;;;;;;17.11;100.00;95896.25;5011316;28;103201;-58
2023/07/01 00:17:20;;;;;;;38.23;31.63;;;;;;;17.06;100.00;95899.06;5009826;28;101959;-58
2023/07/01 00:19:47;;;;;;;39.33;30.13;;;;;;;17.07;100.00;95901.41;5010070;28;103670;-58
2023/07/01 00:22:14;;;;;;;38.73;30.30;;;;;;;16.98;100.00;95899.75;5011220;28;102584;-58
2023/07/01 00:24:43;;;;;;;40.20;30.13;;;;;;;17.02;100.00;95898.06;5011355;28;101874;-58
2023/07/01 00:27:10;;;;;;;35.50;29.50;;;;;;;16.94;100.00;95899.56;5011563;28;102401;-58
2023/07/01 00:29:37;;;;;;;36.77;29.73;;;;;;;16.96;100.00;95886.63;5009347;28;105722;-58
2023/07/01 00:32:04;;;;;;;40.13;31.70;;;;;;;17.01;100.00;95891.09;5010021;28;101897;-58
2023/07/01 00:34:31;;;;;;;39.43;32.40;;;;;;;17.02;100.00;95895.38;5013131;28;105675;-58
2023/07/01 00:36:58;;;;;;;41.53;31.90;;;;;;;17.03;100.00;95895.06;5009822;28;101953;-58
2023/07/01 00:39:25;;;;;;;41.03;31.97;;;;;;;16.91;100.00;95884.06;5009718;28;105650;-58
2023/07/01 00:41:54;;;;;;;39.97;32.53;;;;;;;16.89;100.00;95880.88;5010925;28;102710;-58
2023/07/01 00:44:21;;;;;;;41.53;31.80;;;;;;;16.94;100.00;95888.81;5009945;28;101952;-58
2023/07/01 00:46:48;;;;;;;44.33;33.13;;;;;;;16.96;100.00;95883.16;5009790;28;104530;-58
2023/07/01 00:49:15;;;;;;;39.47;32.67;;;;;;;16.98;100.00;95883.63;5009889;28;102803;-58
2023/07/01 00:51:42;;;;;;;41.00;32.27;;;;;;;16.95;100.00;95876.19;5011091;28;102099;-58
2023/07/01 00:54:09;;;;;;;41.37;33.43;;;;;;;16.97;100.00;95882.06;5011107;28;102477;-58
2023/07/01 00:56:36;;;;;;;39.83;32.80;;;;;;;16.98;100.00;95880.94;5012645;28;105424;-58
2023/07/01 00:59:04;;;;;;;40.17;32.27;;;;;;;16.91;100.00;95883.25;5009087;28;105168;-58
2023/07/01 01:01:38;;;;;;;41.17;33.50;;;;;;;16.92;100.00;95880.28;5008745;28;105863;-58
2023/07/01 01:04:15;;;;;;;42.17;33.13;;;;;;;16.93;100.00;95881.88;5009646;28;101865;-57
2023/07/01 01:06:47;;;;;;;45.17;34.77;;;;;;;17.00;100.00;95876.88;5011203;28;102424;-57
2023/07/01 01:09:21;;;;;;;40.40;32.70;;;;;;;16.92;100.00;95879.47;5010144;28;102528;-58
2023/07/01 01:11:50;;;;;;;41.00;32.03;;;;;;;16.99;100.00;95869.91;5009471;28;101824;-58
2023/07/01 01:14:20;;;;;;;38.13;31.43;;;;;;;16.95;100.00;95874.28;5010416;28;102396;-58
2023/07/01 01:16:50;;;;;;;38.30;31.43;;;;;;;17.06;100.00;95869.50;5008965;28;105353;-58
2023/07/01 01:19:36;;;;;;;39.40;31.40;;;;;;;17.04;100.00;95875.16;5012517;28;102069;-58
2023/07/01 01:22:15;;;;;;;38.27;31.37;;;;;;;16.90;100.00;95868.25;5008908;28;105394;-57
2023/07/01 01:24:51;;;;;;;40.20;31.87;;;;;;;16.93;100.00;95873.00;5009092;28;103585;-58
2023/07/01 01:27:23;;;;;;;38.47;31.13;;;;;;;16.89;100.00;95872.03;5009401;28;105510;-58
2023/07/01 01:29:51;;;;;;;39.17;32.00;;;;;;;16.98;100.00;95872.91;5008740;28;105772;-58
2023/07/01 01:32:19;;;;;;;39.80;31.23;;;;;;;17.00;100.00;95871.50;5008758;28;101900;-58
2023/07/01 01:34:46;;;;;;;38.83;32.07;;;;;;;16.93;100.00;95878.38;5010038;28;103438;-58
2023/07/01 01:37:17;;;;;;;36.23;29.60;;;;;;;16.88;100.00;95875.78;5008445;28;105489;-58
2023/07/01 01:39:47;;;;;;;39.83;30.70;;;;;;;16.87;100.00;95883.06;5012695;28;101858;-57
2023/07/01 01:42:21;;;;;;;36.90;28.53;;;;;;;16.80;100.00;95873.84;5010153;28;102824;-58
2023/07/01 01:44:53;;;;;;;38.90;29.90;;;;;;;16.72;100.00;95877.22;5008808;28;101956;-58
2023/07/01 01:47:22;;;;;;;36.97;30.20;;;;;;;16.75;100.00;95879.31;5008326;28;105683;-58
2023/07/01 01:49:54;;;;;;;36.87;30.03;;;;;;;16.80;100.00;95881.91;5008072;28;105816;-58
2023/07/01 01:52:23;;;;;;;35.97;29.20;;;;;;;16.72;100.00;95886.09;5010313;28;101759;-58
2023/07/01 01:54:53;;;;;;;41.10;31.13;;;;;;;16.78;100.00;95868.75;5008551;28;104868;-58
2023/07/01 01:57:22;;;;;;;37.43;30.03;;;;;;;16.79;100.00;95869.56;5009743;28;102630;-58
2023/07/01 01:59:49;;;;;;;38.97;30.30;;;;;;;16.73;100.00;95878.84;5008476;28;102044;-58
2023/07/01 02:02:18;;;;;;;34.23;28.97;;;;;;;16.75;100.00;95871.25;5011642;28;103774;-58
2023/07/01 02:04:45;;;;;;;34.17;28.00;;;;;;;16.78;100.00;95873.34;5008536;28;101973;-57
2023/07/01 02:07:12;;;;;;;32.47;27.17;;;;;;;16.77;100.00;95877.09;5008606;28;105437;-58
2023/07/01 02:09:39;;;;;;;31.80;25.87;;;;;;;16.81;100.00;95878.91;5008172;28;103780;-57
2023/07/01 02:12:06;;;;;;;33.33;26.90;;;;;;;16.78;100.00;95873.34;5010108;28;101906;-58
2023/07/01 02:14:33;;;;;;;31.83;25.43;;;;;;;16.74;100.00;95872.34;5009534;28;102488;-57
2023/07/01 02:17:01;;;;;;;30.93;25.70;;;;;;;16.74;100.00;95872.34;5007952;28;105069;-57
2023/07/01 02:19:29;;;;;;;32.47;25.27;;;;;;;16.73;100.00;95865.41;5007910;28;101904;-58
2023/07/01 02:21:56;;;;;;;32.67;26.73;;;;;;;16.74;100.00;95878.50;5009757;28;102502;-57
2023/07/01 02:24:24;;;;;;;32.03;25.13;;;;;;;16.68;100.00;95870.88;5012507;28;102721;-58
2023/07/01 02:26:51;;;;;;;30.63;25.70;;;;;;;16.67;100.00;95869.28;5009903;28;102490;-58
2023/07/01 02:29:19;;;;;;;32.40;26.57;;;;;;;16.71;100.00;95867.56;5007668;28;105812;-58
2023/07/01 02:31:45;;;;;;;30.73;24.77;;;;;;;16.70;100.00;95868.69;5008021;28;102294;-58
2023/07/01 02:34:13;;;;;;;30.97;26.23;;;;;;;16.73;100.00;95873.47;5007955;28;103748;-58
2023/07/01 02:36:43;;;;;;;32.00;25.23;;;;;;;16.66;100.00;95870.38;5007697;28;105383;-58
2023/07/01 02:39:10;;;;;;;30.60;25.67;;;;;;;16.68;100.00;95865.50;5009377;28;101990;-58
2023/07/01 02:41:37;;;;;;;31.90;25.93;;;;;;;16.65;100.00;95869.59;5008332;28;105399;-58
2023/07/01 02:44:04;;;;;;;30.00;25.67;;;;;;;16.76;100.00;95872.84;5007044;28;105284;-58
2023/07/01 02:46:31;;;;;;;31.03;25.80;;;;;;;16.76;100.00;95876.34;5011262;28;101995;-58
2023/07/01 02:48:58;;;;;;;31.77;25.07;;;;;;;16.76;100.00;95870.97;4990322;28;106663;-58
2023/07/01 02:51:25;;;;;;;30.30;25.17;;;;;;;16.73;100.00;95870.78;5007644;28;101911;-58
2023/07/01 02:53:53;;;;;;;31.60;24.70;;;;;;;16.74;100.00;95867.00;5007845;28;105156;-58
2023/07/01 02:56:21;;;;;;;28.87;25.40;;;;;;;16.77;100.00;95866.38;5007513;28;105850;-56
2023/07/01 02:58:48;;;;;;;29.17;24.57;;;;;;;16.81;100.00;95862.00;5041615;27;102274;-58
2023/07/01 03:01:15;;;;;;;31.10;25.33;;;;;;;16.80;100.00;95863.91;5007949;28;104910;-58
2023/07/01 03:03:42;;;;;;;29.30;23.53;;;;;;;16.83;100.00;95863.28;5007234;28;105333;-57
2023/07/01 03:06:09;;;;;;;29.97;24.77;;;;;;;16.83;100.00;95870.53;5007600;28;102125;-58
2023/07/01 03:08:36;;;;;;;32.67;25.70;;;;;;;16.87;100.00;95866.97;5010542;28;105244;-58
2023/07/01 03:11:05;;;;;;;33.33;25.97;;;;;;;16.90;100.00;95860.19;5007663;28;102008;-58
2023/07/01 03:13:32;;;;;;;32.30;26.10;;;;;;;16.92;100.00;95868.72;5007331;28;103811;-58
2023/07/01 03:16:00;;;;;;;30.60;24.47;;;;;;;16.96;100.00;95858.97;5040746;27;104736;-58
2023/07/01 03:18:27;;;;;;;31.80;24.90;;;;;;;16.95;100.00;95868.13;5041475;27;102170;-58
2023/07/01 03:20:57;;;;;;;32.27;26.60;;;;;;;16.82;100.00;95864.38;5041320;27;104960;-58
2023/07/01 03:23:25;;;;;;;32.77;25.97;;;;;;;16.90;100.00;95870.94;5007047;28;105390;-58
2023/07/01 03:25:52;;;;;;;32.77;26.53;;;;;;;16.83;100.00;95870.53;5007588;28;101955;-58
2023/07/01 03:28:21;;;;;;;34.80;26.60;;;;;;;16.90;100.00;95870.94;5007583;28;103979;-58
2023/07/01 03:30:48;;;;;;;36.30;28.50;;;;;;;16.87;100.00;95872.34;5011581;28;105469;-58
2023/07/01 03:33:17;;;;;;;35.07;27.87;;;;;;;16.95;100.00;95865.44;5011838;28;102377;-58
2023/07/01 03:35:44;;;;;;;35.97;27.50;;;;;;;16.96;100.00;95867.03;5011745;28;102657;-58
2023/07/01 03:38:13;;;;;;;35.00;27.57;;;;;;;16.91;100.00;95865.28;5012083;28;102407;-57
2023/07/01 03:40:40;;;;;;;37.47;28.07;;;;;;;16.98;100.00;95872.91;5011619;28;102467;-58
2023/07/01 03:43:07;;;;;;;34.60;28.13;;;;;;;16.94;100.00;95869.25;5010206;28;105354;-58
2023/07/01 03:45:36;;;;;;;37.53;27.60;;;;;;;16.95;100.00;95868.13;5012192;28;101865;-57
2023/07/01 03:48:03;;;;;;;34.97;27.23;;;;;;;16.89;100.00;95866.66;5011553;28;102551;-58
2023/07/01 03:50:30;;;;;;;33.23;26.80;;;;;;;16.83;100.00;95868.66;5013220;28;105275;-58
2023/07/01 03:52:57;;;;;;;32.47;25.67;;;;;;;16.75;100.00;95873.94;5012062;28;102471;-58
2023/07/01 03:55:25;;;;;;;32.77;24.77;;;;;;;16.75;100.00;95873.94;5009407;28;104059;-58
2023/07/01 03:57:52;;;;;;;31.83;24.10;;;;;;;16.69;100.00;95869.78;5010601;28;101989;-58
2023/07/01 04:00:19;;;;;;;31.17;23.93;;;;;;;16.68;100.00;95871.66;5010628;28;105536;-58
2023/07/01 04:02:49;;;;;;;31.57;24.13;;;;;;;16.64;100.00;95867.19;5009963;28;105454;-57
2023/07/01 04:05:16;;;;;;;31.53;23.53;;;;;;;16.69;100.00;95867.91;5011463;28;101823;-58
2023/07/01 04:07:45;;;;;;;29.63;22.87;;;;;;;16.67;100.00;95867.38;5011710;28;102408;-57
2023/07/01 04:10:13;;;;;;;29.50;22.63;;;;;;;16.65;100.00;95872.28;5011201;28;102518;-58
2023/07/01 04:12:40;;;;;;;28.27;22.10;;;;;;;16.62;100.00;95874.78;5013877;28;101948;-58
2023/07/01 04:15:10;;;;;;;30.50;22.90;;;;;;;16.65;100.00;95879.53;5011038;28;102626;-58
2023/07/01 04:17:39;;;;;;;28.10;21.10;;;;;;;16.54;100.00;95878.13;5010287;28;101895;-57
2023/07/01 04:20:09;;;;;;;27.43;21.83;;;;;;;16.53;100.00;95876.56;5010352;28;105794;-57
2023/07/01 04:22:36;;;;;;;27.23;22.13;;;;;;;16.50;100.00;95877.13;5011092;28;102705;-58
2023/07/01 04:25:04;;;;;;;30.10;22.83;;;;;;;16.51;100.00;95889.50;5009966;28;101962;-58
2023/07/01 04:27:31;;;;;;;32.03;23.30;;;;;;;16.55;100.00;95885.09;5011308;28;102611;-58
2023/07/01 04:29:58;;;;;;;31.87;22.27;;;;;;;16.56;100.00;95886.72;5009645;28;105654;-57
2023/07/01 04:32:25;;;;;;;31.77;23.27;;;;;;;16.53;100.00;95892.66;5011546;28;101900;-56
2023/07/01 04:34:52;;;;;;;32.77;23.40;;;;;;;16.47;100.00;95897.31;5014049;28;102568;-56
2023/07/01 04:37:20;;;;;;;31.53;22.80;;;;;;;16.48;100.00;95900.81;5011436;28;101891;-57
2023/07/01 04:39:47;;;;;;;31.70;23.17;;;;;;;16.50;100.00;95903.97;5011146;28;102438;-56
2023/07/01 04:42:14;;;;;;;33.47;23.30;;;;;;;16.48;100.00;95898.13;5010627;28;102586;-56
2023/07/01 04:44:41;;;;;;;31.93;23.00;;;;;;;16.50;100.00;95903.97;5009582;28;102102;-56
2023/07/01 04:47:08;;;;;;;34.63;24.37;;;;;;;16.44;100.00;95911.34;5010488;28;103041;-56
2023/07/01 04:49:35;;;;;;;34.90;24.23;;;;;;;16.40;100.00;95904.22;5008943;28;105676;-57
2023/07/01 04:52:02;;;;;;;32.80;24.17;;;;;;;16.46;100.00;95919.13;5009819;28;101858;-57
2023/07/01 04:54:30;;;;;;;30.00;20.07;;;;;;;16.38;100.00;95923.25;5011041;28;102918;-56
2023/07/01 04:56:57;;;;;;;14.57;10.37;;;;;;;16.11;100.00;95919.75;5013854;28;102552;-57
2023/07/01 04:59:24;;;;;;;14.43;11.27;;;;;;;16.14;100.00;95922.63;5009826;28;104861;-56
2023/07/01 05:01:51;;;;;;;10.43;9.17;;;;;;;16.08;100.00;95929.16;5009099;28;105005;-56
2023/07/01 05:04:18;;;;;;;10.90;9.47;;;;;;;16.02;100.00;95940.31;5010718;28;101883;-55
2023/07/01 05:06:45;;;;;;;9.33;7.10;;;;;;;15.87;100.00;95948.59;5010080;28;105399;-57
2023/07/01 05:09:12;;;;;;;7.73;6.30;;;;;;;15.79;100.00;95938.53;5011381;28;102621;-57
2023/07/01 05:11:40;;;;;;;6.37;5.50;;;;;;;15.72;100.00;95944.28;5010457;28;102322;-55
2023/07/01 05:14:07;;;;;;;6.50;5.83;;;;;;;15.68;100.00;95945.16;5011893;28;102045;-57
2023/07/01 05:16:33;;;;;;;6.50;5.67;;;;;;;15.72;100.00;95951.53;5010901;28;102660;-56
2023/07/01 05:19:00;;;;;;;6.47;5.70;;;;;;;15.66;100.00;95958.06;5015324;28;101722;-57
2023/07/01 05:21:29;;;;;;;7.03;6.33;;;;;;;15.74;100.00;95965.41;5011089;28;102567;-57
2023/07/01 05:23:56;;;;;;;6.87;6.17;;;;;;;15.68;100.00;95966.59;5011776;28;101920;-56
2023/07/01 05:26:23;;;;;;;6.43;5.83;;;;;;;15.67;100.00;95971.19;5009853;28;104461;-57
2023/07/01 05:28:51;;;;;;;5.43;4.97;;;;;;;15.64;100.00;95968.28;5011027;28;103199;-57
2023/07/01 05:31:18;;;;;;;5.00;4.50;;;;;;;15.57;100.00;95973.19;5011586;28;101823;-56
2023/07/01 05:33:45;;;;;;;6.53;5.13;;;;;;;15.62;100.00;95973.13;5011566;28;102583;-57
2023/07/01 05:36:13;;;;;;;5.57;5.07;;;;;;;15.57;100.00;95982.03;5010689;28;102473;-57
2023/07/01 05:38:40;;;;;;;5.07;4.50;;;;;;;15.49;100.00;95977.31;5011421;28;101894;-57
2023/07/01 05:41:07;;;;;;;5.67;5.10;;;;;;;15.51;100.00;95979.72;5014140;28;102399;-57
2023/07/01 05:43:35;;;;;;;5.80;5.20;;;;;;;15.36;100.00;95983.41;5011544;28;101890;-57
2023/07/01 05:46:03;;;;;;;4.93;4.53;;;;;;;15.31;100.00;95978.09;5011141;28;102405;-57
2023/07/01 05:48:30;;;;;;;5.67;5.00;;;;;;;15.24;100.00;95992.94;5010182;28;102516;-56
2023/07/01 05:50:57;;;;;;;6.27;5.67;;;;;;;15.22;100.00;95984.41;5011463;28;102066;-55
2023/07/01 05:53:23;;;;;;;6.10;5.50;;;;;;;15.13;100.00;95996.84;5009181;28;105190;-56
2023/07/01 05:55:50;;;;;;;6.80;6.20;;;;;;;15.06;100.00;96001.75;5010273;28;101896;-56
2023/07/01 05:58:17;;;;;;;6.73;6.10;;;;;;;15.05;100.00;95995.59;5011105;28;101791;-57
2023/07/01 06:00:45;;;;;;;6.80;6.20;;;;;;;15.08;100.00;96005.75;5012225;28;105437;-56
2023/07/01 06:03:13;;;;;;;7.13;6.43;;;;;;;14.98;100.00;96013.13;5011117;28;102067;-56
2023/07/01 06:05:40;;;;;;;7.53;6.83;;;;;;;14.95;100.00;96008.31;5010712;28;102358;-57
2023/07/01 06:08:07;;;;;;;7.23;6.53;;;;;;;14.93;100.00;96013.97;5010422;28;102515;-56
2023/07/01 06:10:34;;;;;;;7.83;7.03;;;;;;;14.89;100.00;96017.50;5010817;28;102138;-55
2023/07/01 06:13:01;;;;;;;7.90;7.10;;;;;;;14.91;100.00;96018.00;5010668;28;102438;-56
2023/07/01 06:15:28;;;;;;;7.87;7.17;;;;;;;14.94;100.00;96020.13;5010075;28;102661;-56
2023/07/01 06:17:55;;;;;;;8.80;7.90;;;;;;;15.03;100.00;96018.38;5011121;28;101852;-57
2023/07/01 06:20:24;;;;;;;7.77;7.07;;;;;;;15.03;100.00;96026.41;5009337;28;105635;-55
2023/07/01 06:22:51;;;;;;;8.57;7.17;;;;;;;15.03;100.00;96027.22;5012001;28;105737;-56
2023/07/01 06:25:18;;;;;;;8.67;7.77;;;;;;;14.99;100.00;96030.78;5010725;28;102629;-57
2023/07/01 06:27:45;;;;;;;8.67;7.70;;;;;;;15.01;100.00;96032.09;5010127;28;102661;-56
2023/07/01 06:30:12;;;;;;;8.87;8.03;;;;;;;15.08;100.00;96032.53;5010297;28;102019;-54
2023/07/01 06:32:39;;;;;;;9.27;7.60;;;;;;;15.17;100.00;96035.38;5009229;28;105226;-56
2023/07/01 06:35:06;;;;;;;8.80;7.97;;;;;;;15.21;100.00;96039.06;5008239;28;104068;-57
2023/07/01 06:37:35;;;;;;;7.87;7.03;;;;;;;15.21;100.00;96042.53;4993868;28;101978;-55
2023/07/01 06:40:02;;;;;;;8.00;7.30;;;;;;;15.25;100.00;96042.75;5010266;28;102411;-56
2023/07/01 06:42:29;;;;;;;7.43;6.73;;;;;;;15.29;100.00;96047.25;5009947;28;103049;-56
2023/07/01 06:44:56;;;;;;;8.20;7.40;;;;;;;15.33;100.00;96034.13;5012698;28;102053;-57
2023/07/01 06:47:23;;;;;;;8.53;7.73;;;;;;;15.32;100.00;96040.53;5007007;28;105570;-56
2023/07/01 06:49:50;;;;;;;8.57;7.70;;;;;;;15.49;100.00;96035.50;5010773;28;101724;-56
2023/07/01 06:52:17;;;;;;;9.60;8.00;;;;;;;15.58;100.00;96037.25;5009850;28;102375;-57
2023/07/01 06:54:45;;;;;;;7.73;6.97;;;;;;;15.58;100.00;96031.09;4989886;28;103208;-55
2023/07/01 06:57:13;;;;;;;7.77;6.97;;;;;;;15.63;100.00;96034.50;5006951;28;101859;-57
2023/07/01 06:59:40;;;;;;;8.13;7.33;;;;;;;15.80;100.00;96028.63;5010293;28;102939;-57
2023/07/01 07:02:07;;;;;;;8.70;7.90;;;;;;;15.91;100.00;96030.84;5009825;28;102547;-57
2023/07/01 07:04:34;;;;;;;10.07;8.53;;;;;;;15.91;100.00;96027.38;5011485;28;101845;-56
2023/07/01 07:07:01;;;;;;;10.10;7.73;;;;;;;15.86;100.00;96030.13;5016375;28;102351;-56
2023/07/01 07:09:27;;;;;;;8.90;7.67;;;;;;;15.92;100.00;96032.44;5013366;28;103247;-57
2023/07/01 07:11:56;;;;;;;7.47;6.67;;;;;;;15.91;100.00;96025.47;5013661;28;102442;-56
2023/07/01 07:14:24;;;;;;;9.70;7.20;;;;;;;16.07;100.00;96029.50;5011663;28;105592;-55
2023/07/01 07:16:52;;;;;;;7.63;6.83;;;;;;;16.21;100.00;96029.56;5045670;27;101975;-56
2023/07/01 07:19:19;;;;;;;8.60;7.00;;;;;;;16.52;100.00;96038.72;5012148;28;103981;-57
2023/07/01 07:21:46;;;;;;;7.23;6.53;;;;;;;16.40;100.00;96030.34;5045411;27;105157;-56
2023/07/01 07:24:14;;;;;;;7.50;6.80;;;;;;;16.63;100.00;96024.78;5045947;27;101955;-57
2023/07/01 07:26:42;;;;;;;8.27;6.97;;;;;;;16.60;100.00;96021.91;5011760;28;103681;-56
2023/07/01 07:29:11;;;;;;;7.00;6.40;;;;;;;16.70;100.00;96011.78;5015989;28;102963;-57
2023/07/01 07:31:37;;;;;;;6.40;5.80;;;;;;;16.76;100.00;96020.53;5013428;28;102350;-57
2023/07/01 07:34:05;;;;;;;7.53;6.80;;;;;;;16.92;100.00;96021.84;5012778;28;103047;-57
2023/07/01 07:36:32;;;;;;;6.70;6.10;;;;;;;17.10;100.00;96026.28;5013014;28;101827;-57
2023/07/01 07:38:58;;;;;;;6.43;5.93;;;;;;;17.35;100.00;96012.34;5013505;28;102568;-56
2023/07/01 07:41:26;;;;;;;6.70;6.10;;;;;;;17.31;100.00;96008.66;5012454;28;103156;-57
2023/07/01 07:43:53;;;;;;;5.50;5.03;;;;;;;17.28;100.00;96007.38;5013295;28;102016;-55
2023/07/01 07:46:21;;;;;;;5.87;5.03;;;;;;;17.32;100.00;96000.31;5012980;28;102439;-57
2023/07/01 07:48:48;;;;;;;6.17;5.57;;;;;;;17.07;100.00;95997.34;5011848;28;102745;-57
2023/07/01 07:51:15;;;;;;;5.97;5.37;;;;;;;17.05;100.00;96002.25;5016587;28;101684;-57
2023/07/01 07:53:42;;;;;;;6.30;5.70;;;;;;;17.03;100.00;95993.66;5012670;28;102721;-57
2023/07/01 07:56:09;;;;;;;5.60;5.10;;;;;;;17.14;100.00;95998.53;5012706;28;101895;-57
2023/07/01 07:58:36;;;;;;;5.80;5.30;;;;;;;17.23;100.00;95994.03;4991642;28;105192;-57
2023/07/01 08:01:03;;;;;;;6.17;5.67;;;;;;;17.45;100.00;95996.03;4996071;28;102713;-56
2023/07/01 08:03:31;;;;;;;5.87;5.30;;;;;;;17.32;100.00;95996.81;5012938;28;101839;-56
2023/07/01 08:05:58;;;;;;;6.63;5.27;;;;;;;17.59;100.00;95999.47;5012488;28;102406;-57
2023/07/01 08:08:25;;;;;;;5.63;5.13;;;;;;;17.53;100.00;95982.66;5012266;28;102665;-57
2023/07/01 08:10:53;;;;;;;6.17;5.57;;;;;;;17.67;100.00;95985.31;5016307;28;101857;-56
2023/07/01 08:13:19;;;;;;;5.43;4.93;;;;;;;17.53;100.00;95979.16;5012254;28;102652;-57
2023/07/01 08:15:47;;;;;;;7.13;5.37;;;;;;;17.65;100.00;95988.28;5010197;28;102151;-56
2023/07/01 08:18:14;;;;;;;4.67;4.20;;;;;;;17.62;100.00;95971.97;5012742;28;102724;-56
2023/07/01 08:20:42;;;;;;;5.47;4.97;;;;;;;17.81;100.00;95964.50;5011994;28;102612;-57
2023/07/01 08:23:09;;;;;;;5.30;4.80;;;;;;;17.73;100.00;95959.88;5012367;28;101922;-55
2023/07/01 08:25:36;;;;;;;5.87;4.73;;;;;;;17.85;100.00;95963.63;5012492;28;101871;-55
2023/07/01 08:28:04;;;;;;;4.80;4.40;;;;;;;17.93;100.00;95967.47;5012055;28;102580;-57
2023/07/01 08:30:30;;;;;;;5.77;4.83;;;;;;;17.84;100.00;95962.03;5012430;28;101833;-59
2023/07/01 08:32:57;;;;;;;5.03;4.53;;;;;;;18.09;100.00;95968.69;5013968;28;105782;-59
2023/07/01 08:35:24;;;;;;;5.70;4.80;;;;;;;18.03;100.00;95965.31;5012056;28;101884;-57
2023/07/01 08:37:53;;;;;;;5.10;4.43;;;;;;;18.00;100.00;95959.75;5010718;28;105295;-59
2023/07/01 08:40:19;;;;;;;4.70;4.30;;;;;;;18.00;100.00;95957.06;5010274;28;105889;-60
2023/07/01 08:42:49;;;;;;;5.70;4.00;;;;;;;18.13;100.00;95956.19;5010618;28;101961;-57
2023/07/01 08:45:16;;;;;;;4.60;4.10;;;;;;;18.16;100.00;95947.50;5044375;27;105184;-55
2023/07/01 08:47:43;;;;;;;4.70;4.30;;;;;;;18.27;100.00;95948.84;5043097;27;105249;-57
2023/07/01 08:50:11;;;;;;;4.33;3.83;;;;;;;18.44;100.00;95949.75;5010889;28;101941;-58
2023/07/01 08:52:43;;;;;;;4.27;3.90;;;;;;;18.54;100.00;95935.22;5011827;28;102652;-58
2023/07/01 08:55:12;;;;;;;4.70;4.03;;;;;;;18.55;100.00;95936.78;5014970;28;103170;-64
2023/07/01 08:57:39;;;;;;;4.67;3.90;;;;;;;18.69;100.00;95934.78;5010412;28;105862;-59
2023/07/01 09:00:09;;;;;;;4.33;3.50;;;;;;;18.38;100.00;95940.22;5043848;27;105524;-58
2023/07/01 09:02:36;;;;;;;6.23;3.63;;;;;;;18.42;100.00;95930.41;5044374;27;102057;-58
2023/07/01 09:05:04;;;;;;;5.37;4.03;;;;;;;18.35;100.00;95930.06;5010609;28;105732;-58
2023/07/01 09:07:31;;;;;;;7.10;3.40;;;;;;;18.40;100.00;95929.13;5043313;27;105363;-58
2023/07/01 09:09:58;;;;;;;3.83;3.43;;;;;;;18.54;100.00;95927.91;5011944;28;101879;-59
2023/07/01 09:12:27;;;;;;;5.73;3.63;;;;;;;18.75;100.00;95928.94;5011648;28;102635;-59
2023/07/01 09:15:01;;;;;;;3.77;3.50;;;;;;;18.73;100.00;95925.78;5009814;28;105636;-59
2023/07/01 09:17:30;;;;;;;3.90;3.40;;;;;;;18.99;100.00;95931.22;5047351;27;101786;-59
2023/07/01 09:20:02;;;;;;;5.00;3.50;;;;;;;19.11;100.00;95926.00;5009651;28;103703;-54
2023/07/01 09:22:29;;;;;;;4.63;3.50;;;;;;;19.04;100.00;95921.09;5009792;28;102035;-54
2023/07/01 09:24:56;;;;;;;4.53;3.07;;;;;;;19.17;100.00;95916.66;5011362;28;102966;-51
2023/07/01 09:27:23;;;;;;;3.73;3.17;;;;;;;19.26;100.00;95920.19;5010336;28;103558;-58
2023/07/01 09:29:52;;;;;;;3.30;3.00;;;;;;;19.00;100.00;95916.63;5009615;28;101899;-58
2023/07/01 09:32:28;;;;;;;3.60;2.77;;;;;;;19.17;100.00;95917.47;5010005;28;105386;-59
2023/07/01 09:34:57;;;;;;;3.27;2.97;;;;;;;19.15;100.00;95917.00;5010746;28;102659;-59
2023/07/01 09:37:24;;;;;;;3.80;2.93;;;;;;;18.86;100.00;95908.69;5043569;27;101932;-59
2023/07/01 09:39:51;;;;;;;4.07;2.97;;;;;;;19.24;100.00;95909.72;5046379;27;105326;-59
2023/07/01 09:42:18;;;;;;;3.63;2.73;;;;;;;19.47;100.00;95921.97;5043693;27;101956;-62
2023/07/01 09:45:09;;;;;;;3.37;2.63;;;;;;;19.95;100.00;95917.13;5011444;28;103278;-58
2023/07/01 09:47:35;;;;;;;2.80;2.60;;;;;;;19.58;100.00;95908.94;5009858;28;102713;-59
2023/07/01 09:50:03;;;;;;;3.40;3.10;;;;;;;19.54;100.00;95907.97;5011089;28;101898;-58
2023/07/01 09:52:33;;;;;;;3.20;2.90;;;;;;;19.29;100.00;95903.41;5009756;28;105287;-58
2023/07/01 09:55:02;;;;;;;5.80;3.53;;;;;;;19.53;100.00;95898.31;5043049;27;105394;-59
2023/07/01 09:57:29;;;;;;;3.53;3.10;;;;;;;19.71;100.00;95903.38;5009747;28;101883;-60
2023/07/01 09:59:56;;;;;;;3.97;3.20;;;;;;;19.87;100.00;95898.28;5009148;28;104912;-60
2023/07/01 10:02:26;;;;;;;3.30;2.97;;;;;;;20.06;100.00;95904.13;5013310;28;102006;-60
2023/07/01 10:04:53;;;;;;;3.97;3.47;;;;;;;20.33;100.00;95903.75;5009523;28;104973;-59
2023/07/01 10:07:20;;;;;;;3.23;3.00;;;;;;;20.55;100.00;95895.41;5042532;27;104973;-63
2023/07/01 10:09:51;;;;;;;4.00;2.80;;;;;;;20.86;100.00;95891.25;5010925;28;101731;-62
2023/07/01 10:12:19;;;;;;;3.13;2.83;;;;;;;20.77;100.00;95876.97;5010779;28;102954;-59
2023/07/01 10:14:50;;;;;;;3.40;2.50;;;;;;;20.96;100.00;95879.28;4998600;28;102612;-59
2023/07/01 10:17:18;;;;;;;3.00;2.67;;;;;;;20.82;100.00;95879.50;5011049;28;101742;-61
2023/07/01 10:19:47;;;;;;;2.93;2.63;;;;;;;21.08;100.00;95880.16;5008827;28;103715;-59
2023/07/01 10:22:25;;;;;;;3.07;2.70;;;;;;;20.69;100.00;95871.63;5013186;28;102853;-60
2023/07/01 10:25:02;;;;;;;4.33;2.43;;;;;;;21.09;100.00;95868.22;5010964;28;102355;-59
2023/07/01 10:28:03;;;;;;;3.00;2.47;;;;;;;21.32;100.00;95869.50;5010463;28;102568;-60
2023/07/01 10:31:14;;;;;;;2.77;2.50;;;;;;;21.40;100.00;95860.53;5009923;28;101826;-60
2023/07/01 10:33:57;;;;;;;3.80;3.00;;;;;;;22.09;100.00;95857.97;5010809;28;102641;-60
2023/07/01 10:36:26;;;;;;;3.20;2.90;;;;;;;22.60;100.00;95851.94;5009872;28;103029;-60
2023/07/01 10:39:14;;;;;;;3.57;2.40;;;;;;;22.38;100.00;95852.34;5010108;28;102040;-60
2023/07/01 10:41:52;;;;;;;3.23;2.60;;;;;;;22.42;100.00;95853.25;5010023;28;102467;-60
2023/07/01 10:44:24;;;;;;;2.10;2.00;;;;;;;22.69;100.00;95847.22;5008370;28;103944;-60
2023/07/01 10:47:13;;;;;;;3.30;2.30;;;;;;;22.31;100.00;95847.50;5013916;28;102145;-60
2023/07/01 10:50:00;;;;;;;4.83;2.20;;;;;;;22.14;100.00;95841.50;5041805;27;105771;-60
2023/07/01 10:52:30;;;;;;;2.27;2.07;;;;;;;22.56;100.00;95834.78;5009165;28;101819;-60
2023/07/01 10:54:59;;;;;;;2.83;2.00;;;;;;;22.33;100.00;95836.31;5010569;28;102419;-60
2023/07/01 10:57:26;;;;;;;2.23;2.03;;;;;;;22.57;100.00;95834.44;5009722;28;103175;-60
2023/07/01 11:00:42;;;;;;;5.23;2.53;;;;;;;22.76;100.00;95834.66;5010315;28;101923;-60
2023/07/01 11:03:33;;;;;;;2.47;2.27;;;;;;;22.90;100.00;95831.59;4951027;28;104099;-60
2023/07/01 11:06:02;;;;;;;2.10;1.90;;;;;;;22.53;100.00;95824.63;4984747;28;103033;-60
2023/07/01 11:08:32;;;;;;;2.40;2.10;;;;;;;23.22;100.00;95827.94;4988886;28;101964;-60
2023/07/01 11:11:00;;;;;;;2.77;2.10;;;;;;;22.81;100.00;95820.88;5008968;28;103499;-60
2023/07/01 11:13:27;;;;;;;2.77;1.97;;;;;;;22.70;100.00;95825.19;5008656;28;102107;-59
2023/07/01 11:16:06;;;;;;;3.33;2.30;;;;;;;23.20;100.00;95817.44;5010252;28;102695;-60